This is the latest recevied weather packets stored in our database for station/object EA1BQO-1. If no packets are shown the sender has not sent any weather packets the latest 10 day(s).
| Time | Temp. | Humidity | Pressure | Rain* | Wind** | Luminosity | Snow |
|---|---|---|---|---|---|---|---|
| 1778183279 | 12.78° C | 73% | 1006.6 hPa | 0 mm | - | - | - |
| 1778182679 | 12.78° C | 73% | 1006.2 hPa | 0 mm | - | - | - |
| 1778182079 | 12.78° C | 71% | 1006.1 hPa | 0 mm | - | - | - |
| 1778181479 | 13.33° C | 65% | 1005.9 hPa | 0 mm | - | - | - |
| 1778180879 | 14.44° C | 59% | 1005.9 hPa | 0 mm | - | - | - |
| 1778180279 | 15° C | 55% | 1005.7 hPa | 0 mm | - | - | - |
| 1778179679 | 15.56° C | 52% | 1005.4 hPa | 0 mm | - | - | - |
| 1778179079 | 15.56° C | 51% | 1005.1 hPa | 0 mm | - | - | - |
| 1778178479 | 15.56° C | 50% | 1005.1 hPa | 0 mm | - | - | - |
| 1778177879 | 16.11° C | 48% | 1005.1 hPa | 0 mm | - | - | - |
| 1778177279 | 16.11° C | 49% | 1005.1 hPa | 0 mm | - | - | - |
| 1778176679 | 16.11° C | 46% | 1004.8 hPa | 0 mm | - | - | - |
| 1778176079 | 17.22° C | 40% | 1004.7 hPa | 0 mm | - | - | - |
| 1778175479 | 17.78° C | 43% | 1004.6 hPa | 0 mm | - | - | - |
| 1778174879 | 16.67° C | 48% | 1004.8 hPa | 0 mm | - | - | - |
| 1778174279 | 17.22° C | 45% | 1004.8 hPa | 0 mm | - | - | - |
| 1778173679 | 17.78° C | 46% | 1004.8 hPa | 0 mm | - | - | - |
| 1778173079 | 17.78° C | 44% | 1004.7 hPa | 0 mm | - | - | - |
| 1778172479 | 17.22° C | 46% | 1004.9 hPa | 0 mm | - | - | - |
| 1778171879 | 17.22° C | 46% | 1005.1 hPa | 0 mm | - | - | - |
| 1778171279 | 17.22° C | 46% | 1005 hPa | 0 mm | - | - | - |
| 1778170679 | 17.22° C | 46% | 1005.1 hPa | 0 mm | - | - | - |
| 1778170079 | 17.78° C | 46% | 1005 hPa | 0 mm | - | - | - |
| 1778169479 | 17.78° C | 49% | 1005.1 hPa | 0 mm | - | - | - |
| 1778168879 | 17.22° C | 55% | 1005.5 hPa | 0 mm | - | - | - |
* Rain latest hour (hover to see other rain measurements)
** Current wind speed in m/s (hover to see current wind gust speed)